Berwick, Illinois
Current Conditions -  °F | °C
As of 7:15 PM on Tuesday 27 Jan 2015 (Local Time) from KGBG Reporting Station
Overcast Overcast  
Wind Chill: 22°   Ceiling: 1200
Heat Index: 27°   Visibility: 7mi
Dew Point: 24°   Wind: 5mph
Humidity: 88%   Direction: 90°E
Pressure: 30.23"   Gusts: NA
Location:  40.8°N, 90.54°W
Report Text: KGBG 280115Z AUTO 09004KT 7SM OVC012 M03/M04 A3023 RMK AO2 T10271045
Loading
Personal Weather Stations






























Interactive Weather Map New forecast layout! Learn more

10-Day Weather Forecast

Advertisements
Track Severe Weather on mobile